Time;durP1;ratioP1;P1;durP2;ratioP2;P2;SDS_P1;SDS_P2;PMS_P1;PMS_P2;Temp;Humidity;BMP_temperature;BMP_pressure;BME280_temperature;BME280_humidity;BME280_pressure;Samples;Min_cycle;Max_cycle;Signal;HPM_P1;HPM_P2
2022/02/10 00:16:31;;;;;;;7.73;2.60;;;;;;;2.57;80.23;99761.39;1740664;80;21103;-59
2022/02/10 00:19:10;;;;;;;6.17;2.23;;;;;;;2.58;80.50;99764.03;1715345;80;21383;-59
2022/02/10 00:21:33;;;;;;;9.87;2.20;;;;;;;2.59;80.64;99762.25;1733453;80;22325;-59
2022/02/10 00:34:52;;;;;;;7.30;2.43;;;;;;;2.63;81.48;99740.05;1748961;79;22557;-59
2022/02/10 00:37:24;;;;;;;7.53;2.07;;;;;;;2.64;81.63;99728.49;1769157;78;22143;-60
2022/02/10 00:42:28;;;;;;;10.40;2.10;;;;;;;2.68;81.98;99734.20;1743013;79;22284;-59
2022/02/10 00:44:54;;;;;;;4.70;1.70;;;;;;;2.71;82.13;99720.88;1728911;80;21495;-59
2022/02/10 00:47:20;;;;;;;9.53;2.23;;;;;;;2.74;82.24;99727.89;1754448;79;21108;-60
2022/02/10 00:49:47;;;;;;;5.30;2.83;;;;;;;2.75;82.36;99724.33;1757874;79;22691;-59
2022/02/10 00:52:14;;;;;;;4.33;2.30;;;;;;;2.79;82.50;99718.95;1739215;79;20918;-60
2022/02/10 00:54:41;;;;;;;5.90;1.90;;;;;;;2.83;82.52;99726.41;1742655;79;20882;-59
2022/02/10 00:57:08;;;;;;;5.90;2.20;;;;;;;2.86;82.68;99721.05;1740695;79;21420;-59
2022/02/10 01:10:38;;;;;;;4.43;1.97;;;;;;;2.86;83.31;99701.98;1740282;79;21042;-59
2022/02/10 01:31:41;;;;;;;3.30;1.87;;;;;;;2.94;84.12;99690.76;1736301;79;21136;-59
2022/02/10 01:34:08;;;;;;;4.27;1.80;;;;;;;2.95;84.22;99691.64;1739461;79;20957;-60
2022/02/10 01:36:34;;;;;;;4.37;1.60;;;;;;;2.95;84.34;99692.52;1743779;79;20961;-60
2022/02/10 01:39:01;;;;;;;4.30;1.67;;;;;;;2.97;84.48;99685.40;1740094;79;21110;-59
2022/02/10 01:58:39;;;;;;;;;;;;;;;3.22;85.08;99680.94;1727216;81;21913;-59
2022/02/10 02:03:37;;;;;;;4.27;1.33;;;;;;;3.22;85.30;99672.95;1722443;81;21017;-59
2022/02/10 02:06:19;;;;;;;2.00;1.13;;;;;;;3.23;85.58;99680.03;1727047;81;21072;-60
2022/02/10 02:08:39;;;;;;;2.33;1.33;;;;;;;3.24;85.71;99681.75;1719723;81;21133;-59
2022/02/10 02:11:06;;;;;;;2.43;1.50;;;;;;;3.26;85.94;99682.61;1726577;81;21042;-58
2022/02/10 02:13:33;;;;;;;2.20;1.27;;;;;;;3.32;86.00;99675.83;1721802;81;21089;-60
2022/02/10 02:16:00;;;;;;;3.10;1.30;;;;;;;3.36;86.08;99673.54;1722632;81;21025;-60
2022/02/10 02:18:26;;;;;;;3.20;1.30;;;;;;;3.39;86.27;99674.37;1723617;81;21519;-59
2022/02/10 02:20:55;;;;;;;1.60;1.40;;;;;;;3.44;86.38;99675.59;1721677;81;21044;-59
2022/02/10 02:23:23;;;;;;;2.80;1.40;;;;;;;3.48;86.39;99678.63;1721650;81;22976;-59
2022/02/10 02:25:56;;;;;;;1.90;1.30;;;;;;;3.53;86.50;99679.39;1724192;81;21253;-59
2022/02/10 02:28:18;;;;;;;2.13;1.27;;;;;;;3.56;86.61;99680.67;1724704;81;20883;-59
2022/02/10 02:30:50;;;;;;;2.47;1.47;;;;;;;3.57;86.62;99682.42;1691507;83;22534;-60
2022/02/10 02:38:38;;;;;;;1.40;1.00;;;;;;;3.59;86.80;99683.70;1675276;84;20884;-59
2022/02/10 03:05:22;;;;;;;1.30;1.00;;;;;;;3.84;87.46;99673.39;1672720;84;21163;-58
2022/02/10 03:07:48;;;;;;;1.77;1.00;;;;;;;3.86;87.50;99677.78;1668294;84;22094;-58
2022/02/10 03:12:40;;;;;;;1.40;1.30;;;;;;;3.92;87.72;99671.43;1669331;84;21065;-60
2022/02/10 03:15:16;;;;;;;1.60;1.37;;;;;;;3.94;87.70;99674.94;1672594;84;22423;-60
2022/02/10 03:17:46;;;;;;;1.67;1.50;;;;;;;3.95;87.74;99670.04;1670803;84;21069;-59
2022/02/10 03:20:35;;;;;;;1.90;1.80;;;;;;;3.98;87.90;99671.31;1667838;84;21078;-59
2022/02/10 04:09:32;;;;;;;5.30;4.10;;;;;;;4.17;88.31;99677.94;1722403;81;21755;-59
2022/02/10 04:11:56;;;;;;;5.47;4.00;;;;;;;4.17;88.23;99671.28;1718829;81;21370;-60
2022/02/10 04:14:17;;;;;;;4.77;4.20;;;;;;;4.16;88.29;99673.10;1717707;81;21108;-60
2022/02/10 04:16:40;;;;;;;3.80;3.50;;;;;;;4.18;88.41;99671.70;1719303;81;21468;-60
2022/02/10 04:22:17;;;;;;;5.92;4.72;;;;;;;4.20;88.43;99669.89;1724132;81;21121;-59
2022/02/10 04:27:02;;;;;;;5.10;4.63;;;;;;;4.23;88.37;99661.84;1724038;81;20950;-60
2022/02/10 04:32:33;;;;;;;5.83;5.20;;;;;;;4.20;88.32;99660.56;1724937;81;20934;-59
2022/02/10 05:22:45;;;;;;;5.33;4.73;;;;;;;4.30;87.63;99701.19;1706609;82;21472;-61
2022/02/10 05:33:20;;;;;;;7.00;5.05;;;;;;;4.34;87.43;99714.88;1708256;82;24730;-61
2022/02/10 05:35:47;;;;;;;7.10;6.00;;;;;;;4.35;87.39;99717.94;1710296;82;20919;-60
2022/02/10 05:38:12;;;;;;;7.87;6.63;;;;;;;4.34;87.26;99718.87;1710042;82;21303;-61
2022/02/10 05:43:27;;;;;;;11.33;9.43;;;;;;;4.31;87.24;99722.48;1676984;83;21073;-58
2022/02/10 05:45:52;;;;;;;14.93;9.80;;;;;;;4.29;87.24;99722.08;1710196;81;21645;-60
2022/02/10 05:48:35;;;;;;;11.93;9.97;;;;;;;4.29;87.25;99722.96;1707142;82;21124;-59
2022/02/10 05:58:28;;;;;;;7.80;7.00;;;;;;;4.29;87.23;99728.30;1709947;82;21054;-59
2022/02/10 06:43:31;;;;;;;6.10;5.50;;;;;;;4.49;86.61;99751.82;1660937;84;20605;-59
2022/02/10 06:47:50;;;;;;;7.00;6.17;;;;;;;4.47;86.76;99757.64;1701931;82;21302;-62
2022/02/10 06:55:08;;;;;;;;;;;;;;;4.55;86.69;99753.00;1718198;81;21508;-61
2022/02/10 07:03:35;;;;;;;6.73;6.07;;;;;;;4.56;86.50;99746.76;1716993;81;21341;-62
2022/02/10 07:08:03;;;;;;;6.73;5.17;;;;;;;4.56;86.44;99752.97;1716107;81;21058;-59
2022/02/10 07:46:55;;;;;;;7.67;5.70;;;;;;;4.90;85.66;99766.80;1723275;81;21050;-58
2022/02/10 07:48:56;;;;;;;8.73;7.03;;;;;;;4.92;85.39;99770.31;1716333;81;21692;-58
2022/02/10 07:51:46;;;;;;;8.65;6.87;;;;;;;4.95;85.54;99764.89;1720997;81;21056;-59
2022/02/10 07:53:57;;;;;;;9.13;7.27;;;;;;;4.99;85.44;99763.03;1718301;81;21152;-58
2022/02/10 08:27:09;;;;;;;7.57;6.47;;;;;;;5.36;84.81;99794.98;1678127;84;20179;-59
2022/02/10 08:56:09;;;;;;;4.90;4.50;;;;;;;5.61;83.24;99807.60;1681717;83;21207;-60
2022/02/10 09:01:33;;;;;;;4.07;3.47;;;;;;;5.63;83.18;99813.78;1682309;83;21134;-62
2022/02/10 09:07:03;;;;;;;4.90;4.50;;;;;;;5.70;83.14;99803.80;1711704;82;21579;-59
2022/02/10 09:16:53;;;;;;;5.63;5.13;;;;;;;5.86;82.73;99806.49;1718313;82;20966;-60
2022/02/10 10:02:21;;;;;;;5.57;5.17;;;;;;;6.27;80.42;99803.10;1647192;82;21013;-57
2022/02/10 10:05:08;;;;;;;6.13;5.63;;;;;;;6.27;80.32;99808.45;1719530;81;21053;-56
2022/02/10 10:07:34;;;;;;;6.75;4.00;;;;;;;6.27;80.16;99791.07;1726235;81;22638;-57
2022/02/10 10:15:53;;;;;;;3.40;3.15;;;;;;;6.28;80.08;99790.16;1729682;81;20989;-57
2022/02/10 10:49:55;;;;;;;4.50;3.57;;;;;;;6.52;78.19;99769.80;1724652;81;21083;-58
2022/02/10 10:52:27;;;;;;;4.17;3.17;;;;;;;6.53;78.11;99772.44;1721478;82;20890;-58
2022/02/10 10:57:33;;;;;;;3.72;3.37;;;;;;;6.59;78.03;99778.04;1728820;81;20945;-58
2022/02/10 12:38:59;;;;;;;4.30;3.95;;;;;;;6.28;77.14;99784.35;1634939;83;21415;-63
2022/02/10 13:34:03;;;;;;;6.70;6.00;;;;;;;6.06;77.48;99805.47;1680105;83;21535;-62
2022/02/10 14:16:00;;;;;;;5.03;4.57;;;;;;;6.05;77.61;99820.20;1731704;80;23170;-64
2022/02/10 14:17:43;;;;;;;6.30;4.40;;;;;;;6.06;77.65;99812.16;1714771;80;20949;-63
2022/02/10 14:20:13;;;;;;;5.23;4.73;;;;;;;6.09;77.66;99809.86;1729697;80;20879;-64
2022/02/10 14:27:48;;;;;;;8.27;6.80;;;;;;;6.08;77.64;99826.81;1739352;80;22421;-63
2022/02/10 14:30:15;;;;;;;6.33;5.83;;;;;;;6.05;77.69;99824.22;1738020;80;20978;-64
2022/02/10 14:32:45;;;;;;;7.10;5.80;;;;;;;6.02;77.72;99821.20;1739311;81;20954;-61
2022/02/10 14:35:21;;;;;;;7.47;6.63;;;;;;;6.01;77.77;99828.80;1736392;80;20915;-63
2022/02/10 14:38:39;;;;;;;7.87;6.07;;;;;;;6.00;77.81;99830.16;1736860;80;20938;-62
2022/02/10 14:40:23;;;;;;;7.43;6.70;;;;;;;5.97;77.87;99826.23;1715086;80;21121;-64
2022/02/10 15:53:07;;;;;;;3.62;3.33;;;;;;;4.87;79.19;99814.88;1694512;82;21078;-62
2022/02/10 16:19:11;;;;;;;6.83;6.13;;;;;;;4.48;79.67;99827.36;1702258;82;21546;-61
2022/02/10 16:21:43;;;;;;;9.37;6.37;;;;;;;4.44;79.75;99823.88;1700150;82;21128;-61
2022/02/10 16:24:14;;;;;;;7.97;6.73;;;;;;;4.44;79.86;99829.20;1701215;82;21077;-61
2022/02/10 16:26:53;;;;;;;6.23;5.63;;;;;;;4.42;79.92;99831.02;1700549;82;21133;-61
2022/02/10 16:29:16;;;;;;;8.10;7.03;;;;;;;4.42;79.92;99839.50;1700598;82;21112;-62
2022/02/10 16:31:37;;;;;;;9.93;7.77;;;;;;;4.39;79.95;99833.77;1703708;82;21520;-62
2022/02/10 16:34:06;;;;;;;10.83;7.43;;;;;;;4.37;80.04;99834.25;1699291;83;21242;-60
2022/02/10 16:36:32;;;;;;;9.57;8.60;;;;;;;4.34;80.06;99839.64;1699995;82;20914;-60
2022/02/10 16:38:58;;;;;;;14.43;10.17;;;;;;;4.31;80.18;99839.73;1701884;82;21757;-61
2022/02/10 16:41:25;;;;;;;9.67;8.77;;;;;;;4.25;80.28;99834.54;1699597;82;21404;-61
2022/02/10 16:43:52;;;;;;;13.63;9.10;;;;;;;4.22;80.34;99839.92;1701579;82;21476;-61
2022/02/10 16:46:18;;;;;;;9.53;8.53;;;;;;;4.17;80.47;99841.33;1704144;82;21053;-61
2022/02/10 16:48:44;;;;;;;11.93;9.53;;;;;;;4.15;80.65;99846.30;1702350;82;21226;-61
2022/02/10 16:51:11;;;;;;;10.80;9.37;;;;;;;4.11;80.72;99845.47;1672932;84;21340;-60
2022/02/10 16:53:46;;;;;;;10.33;8.80;;;;;;;4.09;80.91;99847.28;1699115;83;21479;-60
2022/02/10 16:56:15;;;;;;;12.23;9.80;;;;;;;4.08;80.99;99846.00;1701695;82;21583;-61
2022/02/10 16:58:43;;;;;;;17.67;9.13;;;;;;;4.07;81.09;99850.91;1704482;83;21216;-60
2022/02/10 17:04:28;;;;;;;15.83;9.93;;;;;;;4.04;81.17;99844.30;1702394;82;21184;-60
2022/02/10 17:19:09;;;;;;;13.73;10.63;;;;;;;3.97;81.58;99851.98;1697880;82;21088;-58
2022/02/10 17:27:05;;;;;;;13.25;9.68;;;;;;;3.88;81.78;99849.05;1657051;82;26356;-59
2022/02/10 17:30:45;;;;;;;12.57;11.10;;;;;;;3.85;81.84;99844.23;1703235;82;21534;-59
2022/02/10 17:32:11;;;;;;;14.50;11.43;;;;;;;3.82;82.05;99847.85;1688205;82;20952;-59
2022/02/10 17:34:38;;;;;;;14.93;10.33;;;;;;;3.80;82.08;99850.54;1701900;82;20956;-59
2022/02/10 17:37:12;;;;;;;15.37;11.20;;;;;;;3.78;82.19;99851.02;1701404;82;20912;-59
2022/02/10 17:45:17;;;;;;;16.27;11.93;;;;;;;3.72;82.27;99851.14;1652208;82;20931;-59
2022/02/10 17:53:04;;;;;;;17.93;12.00;;;;;;;3.68;82.57;99848.09;1703670;82;20962;-59
2022/02/10 17:55:29;;;;;;;15.80;11.77;;;;;;;3.67;82.61;99848.12;1701023;82;21509;-59
2022/02/10 17:57:56;;;;;;;12.00;10.53;;;;;;;3.64;82.61;99845.09;1701844;82;21528;-59
2022/02/10 18:00:25;;;;;;;13.33;10.87;;;;;;;3.62;82.65;99846.89;1701428;82;20929;-59
2022/02/10 18:02:50;;;;;;;17.53;11.77;;;;;;;3.60;82.65;99837.17;1701692;82;20909;-60
2022/02/10 18:06:06;;;;;;;16.87;11.47;;;;;;;3.58;82.72;99845.17;1706705;82;21543;-58
2022/02/10 18:07:50;;;;;;;17.40;11.47;;;;;;;3.58;82.76;99846.95;1695060;82;21232;-59
2022/02/10 18:10:54;;;;;;;17.90;11.03;;;;;;;3.56;82.79;99846.13;1715034;81;21725;-59
2022/02/10 18:15:23;;;;;;;17.97;12.60;;;;;;;3.55;82.89;99847.03;1719617;81;21077;-59
2022/02/10 18:17:49;;;;;;;15.77;12.10;;;;;;;3.53;82.87;99850.17;1719241;81;21105;-60
2022/02/10 18:20:23;;;;;;;18.30;12.97;;;;;;;3.53;82.88;99852.83;1719829;81;21762;-59
2022/02/10 18:23:05;;;;;;;17.98;13.58;;;;;;;3.50;82.84;99853.75;1718306;81;21050;-59
2022/02/10 18:25:41;;;;;;;19.77;14.97;;;;;;;3.47;82.91;99851.17;1720512;81;21465;-59
2022/02/10 18:30:39;;;;;;;21.00;13.50;;;;;;;3.42;82.92;99847.70;1719733;81;21598;-59
2022/02/10 19:10:47;;;;;;;23.43;14.27;;;;;;;3.14;83.68;99833.14;1712160;81;21125;-59
2022/02/10 19:13:16;;;;;;;16.30;12.47;;;;;;;3.12;83.78;99819.86;1699645;83;21892;-59
2022/02/10 19:15:42;;;;;;;17.93;13.50;;;;;;;3.12;83.82;99817.66;1707632;82;21113;-59
2022/02/10 19:18:09;;;;;;;19.83;13.50;;;;;;;3.11;83.84;99817.22;1704523;83;21533;-58
2022/02/10 19:20:37;;;;;;;16.70;12.13;;;;;;;3.10;83.84;99822.11;1707991;82;21062;-59
2022/02/10 19:23:04;;;;;;;16.00;12.17;;;;;;;3.10;83.95;99813.68;1705846;82;21050;-59
2022/02/10 19:25:34;;;;;;;18.53;13.53;;;;;;;3.09;83.96;99819.02;1703618;82;21795;-59
2022/02/10 19:28:00;;;;;;;18.03;13.00;;;;;;;3.09;84.07;99821.23;1705045;83;21057;-59
2022/02/10 19:30:29;;;;;;;20.57;14.37;;;;;;;3.10;84.18;99820.78;1704783;83;21620;-59
2022/02/10 19:33:00;;;;;;;21.30;14.97;;;;;;;3.08;84.24;99818.14;1703270;83;21105;-59
2022/02/10 19:35:27;;;;;;;22.93;16.53;;;;;;;3.07;84.27;99813.72;1703483;83;21689;-59
2022/02/10 19:37:59;;;;;;;18.23;14.13;;;;;;;3.07;84.29;99819.49;1705747;83;22405;-59
2022/02/10 19:40:33;;;;;;;17.70;13.40;;;;;;;3.06;84.29;99819.97;1703994;83;20935;-58
2022/02/10 19:43:02;;;;;;;16.60;12.90;;;;;;;3.04;84.42;99816.00;1703107;83;21085;-59
2022/02/10 19:45:29;;;;;;;19.90;13.83;;;;;;;3.04;84.47;99808.48;1701194;83;21105;-59
2022/02/10 19:47:55;;;;;;;18.60;13.23;;;;;;;3.04;84.55;99810.69;1669216;84;21159;-59
2022/02/10 19:50:25;;;;;;;17.47;14.37;;;;;;;3.05;84.57;99806.25;1670922;84;21980;-59
2022/02/10 19:52:52;;;;;;;19.73;14.33;;;;;;;3.05;84.55;99806.25;1666371;84;21052;-59
2022/02/10 19:55:21;;;;;;;21.20;14.70;;;;;;;3.07;84.55;99806.20;1656783;84;20981;-59
2022/02/10 19:57:47;;;;;;;18.73;14.70;;;;;;;3.08;84.59;99814.16;1667864;84;21300;-59
2022/02/10 20:00:19;;;;;;;21.33;15.43;;;;;;;3.07;84.53;99809.73;1642371;85;21383;-59
2022/02/10 20:02:44;;;;;;;21.87;15.00;;;;;;;3.06;84.54;99801.81;1654026;84;21152;-59
2022/02/10 20:05:11;;;;;;;20.33;16.13;;;;;;;3.03;84.56;99804.06;1701581;83;21009;-59
2022/02/10 20:07:39;;;;;;;22.60;15.00;;;;;;;3.02;84.71;99810.28;1704253;83;21096;-58
2022/02/10 20:10:06;;;;;;;20.17;15.77;;;;;;;3.02;84.75;99797.86;1704190;82;21572;-59
2022/02/10 20:12:32;;;;;;;22.20;14.67;;;;;;;3.04;84.76;99803.16;1698142;82;21041;-59
2022/02/10 20:14:59;;;;;;;19.00;15.40;;;;;;;3.05;84.73;99798.27;1697970;82;22396;-59
2022/02/10 20:17:25;;;;;;;19.30;14.87;;;;;;;3.03;84.65;99792.97;1702167;82;21746;-58
2022/02/10 20:19:52;;;;;;;22.07;16.83;;;;;;;3.03;84.68;99797.41;1698548;82;21639;-58
2022/02/10 20:22:18;;;;;;;21.93;15.73;;;;;;;3.01;84.74;99795.22;1697357;82;21038;-59
2022/02/10 20:24:44;;;;;;;23.53;16.87;;;;;;;3.02;84.84;99795.20;1694980;82;21061;-59
2022/02/10 20:27:12;;;;;;;20.70;15.43;;;;;;;3.02;84.84;99779.70;1697143;82;21116;-59
2022/02/10 20:29:39;;;;;;;19.73;15.03;;;;;;;3.03;84.86;99782.78;1700157;82;20954;-59
2022/02/10 20:32:07;;;;;;;20.03;14.63;;;;;;;3.06;84.92;99784.52;1674198;82;21006;-59
2022/02/10 20:34:35;;;;;;;19.30;13.57;;;;;;;3.08;84.97;99782.69;1700885;83;20912;-59
2022/02/10 20:37:03;;;;;;;18.03;12.90;;;;;;;3.12;85.04;99783.08;1699565;82;20982;-59
2022/02/10 20:39:30;;;;;;;17.77;13.10;;;;;;;3.16;85.11;99790.95;1697165;82;21512;-59
2022/02/10 20:42:05;;;;;;;17.53;13.30;;;;;;;3.21;85.16;99783.80;1696970;82;20931;-59
2022/02/10 20:44:30;;;;;;;18.57;14.53;;;;;;;3.26;85.12;99785.91;1697174;83;22082;-59
2022/02/10 20:46:57;;;;;;;18.37;13.97;;;;;;;3.31;85.10;99776.53;1699274;83;21460;-59
2022/02/10 20:49:27;;;;;;;19.10;14.87;;;;;;;3.33;84.96;99778.68;1700097;82;20965;-59
2022/02/10 20:51:52;;;;;;;23.20;14.13;;;;;;;3.34;84.87;99773.34;1700687;82;21111;-59
2022/02/10 20:54:19;;;;;;;18.13;13.33;;;;;;;3.36;84.79;99774.19;1701192;82;20993;-59
2022/02/10 20:56:45;;;;;;;16.40;13.00;;;;;;;3.39;84.80;99773.27;1700375;82;20891;-59
2022/02/10 20:59:28;;;;;;;16.67;13.93;;;;;;;3.40;84.75;99779.02;1698716;82;21581;-59
2022/02/10 21:01:51;;;;;;;16.48;12.40;;;;;;;3.41;84.78;99764.78;1702966;82;20994;-59
2022/02/10 21:04:16;;;;;;;19.50;13.27;;;;;;;3.43;84.79;99774.95;1664917;84;21090;-59
2022/02/10 21:09:30;;;;;;;16.57;12.70;;;;;;;3.48;84.77;99772.22;1699677;82;20984;-60
2022/02/10 21:11:44;;;;;;;16.60;12.97;;;;;;;3.49;84.65;99773.48;1695756;82;21429;-59
2022/02/10 21:14:18;;;;;;;12.70;10.37;;;;;;;3.50;84.56;99763.72;1677388;82;20975;-59
2022/02/10 21:16:41;;;;;;;14.27;10.47;;;;;;;3.52;84.58;99767.24;1699425;82;21134;-59
2022/02/10 21:19:10;;;;;;;12.57;10.27;;;;;;;3.55;84.61;99767.19;1699242;82;21358;-60
2022/02/10 21:21:36;;;;;;;12.57;9.80;;;;;;;3.58;84.60;99762.66;1696509;82;20935;-60
2022/02/10 21:24:09;;;;;;;14.47;12.10;;;;;;;3.62;84.52;99760.84;1698301;82;21057;-59
2022/02/10 21:26:39;;;;;;;14.07;11.13;;;;;;;3.63;84.42;99756.81;1693106;82;21057;-60
2022/02/10 21:29:03;;;;;;;14.60;11.50;;;;;;;3.64;84.35;99754.58;1693016;82;21022;-60
2022/02/10 21:31:29;;;;;;;16.07;13.00;;;;;;;3.68;84.33;99745.61;1696118;83;20923;-60
2022/02/10 21:34:12;;;;;;;13.53;11.33;;;;;;;3.68;84.14;99741.61;1697251;82;20963;-60
2022/02/10 21:36:41;;;;;;;16.63;11.63;;;;;;;3.66;83.98;99733.23;1696301;82;21074;-59
2022/02/10 21:39:06;;;;;;;16.57;12.00;;;;;;;3.64;83.87;99734.62;1695959;82;21051;-60
2022/02/10 21:57:08;;;;;;;15.80;11.93;;;;;;;3.63;83.75;99723.55;1697640;82;21535;-59
2022/02/10 21:59:47;;;;;;;13.03;10.57;;;;;;;3.64;83.74;99724.42;1696727;82;21606;-60
2022/02/10 22:06:01;;;;;;;13.67;10.83;;;;;;;3.68;83.71;99721.65;1665780;84;21140;-58
2022/02/10 22:10:25;;;;;;;13.40;9.85;;;;;;;3.74;83.75;99718.00;1697276;82;21235;-59
2022/02/10 22:23:20;;;;;;;18.13;11.73;;;;;;;3.84;83.42;99711.55;1702960;82;21064;-59
2022/02/10 22:25:48;;;;;;;16.63;11.80;;;;;;;3.85;83.33;99711.97;1703235;82;21535;-60
2022/02/10 22:28:30;;;;;;;16.27;11.97;;;;;;;3.86;83.34;99706.19;1705484;82;20974;-59
2022/02/10 22:30:50;;;;;;;14.43;11.10;;;;;;;3.87;83.25;99699.51;1703282;82;21440;-58
2022/02/10 22:35:43;;;;;;;15.67;10.97;;;;;;;3.91;83.24;99693.67;1705797;82;20919;-59
2022/02/10 22:38:09;;;;;;;15.93;11.67;;;;;;;3.92;83.17;99696.73;1704005;82;21093;-59
2022/02/10 22:40:57;;;;;;;15.40;11.47;;;;;;;3.93;83.06;99695.82;1703728;82;21512;-59
2022/02/10 22:43:04;;;;;;;14.27;12.03;;;;;;;3.93;83.04;99693.16;1709833;82;20953;-59
2022/02/10 22:45:30;;;;;;;14.17;12.17;;;;;;;3.93;83.00;99694.48;1709804;82;21098;-59
2022/02/10 22:47:56;;;;;;;14.83;10.47;;;;;;;3.92;82.95;99692.28;1704806;82;21077;-59
2022/02/10 22:50:23;;;;;;;13.17;10.37;;;;;;;3.93;82.91;99692.70;1704911;82;21539;-59
2022/02/10 22:52:49;;;;;;;11.53;9.83;;;;;;;3.95;82.87;99697.55;1705562;82;21157;-59
2022/02/10 22:55:15;;;;;;;11.90;9.70;;;;;;;3.97;82.85;99696.19;1702171;83;21136;-59
2022/02/10 22:57:42;;;;;;;10.67;9.27;;;;;;;3.98;82.88;99694.83;1707501;82;21784;-59
2022/02/10 23:00:09;;;;;;;11.33;9.53;;;;;;;4.01;82.79;99700.52;1701812;82;21136;-60
2022/02/10 23:02:36;;;;;;;12.07;9.73;;;;;;;4.01;82.71;99696.07;1705831;82;21261;-60
2022/02/10 23:05:03;;;;;;;11.77;8.33;;;;;;;4.03;82.62;99701.38;1708261;82;20922;-59
2022/02/10 23:07:31;;;;;;;11.03;9.43;;;;;;;4.01;82.55;99702.73;1704364;82;22405;-59
2022/02/10 23:10:38;;;;;;;11.40;8.10;;;;;;;4.01;82.48;99701.84;1705970;82;21647;-59
2022/02/10 23:12:36;;;;;;;13.30;8.18;;;;;;;4.00;82.44;99703.64;1697040;82;21038;-59
2022/02/10 23:15:00;;;;;;;11.30;8.00;;;;;;;4.01;82.39;99703.19;1704625;82;21357;-59
2022/02/10 23:17:27;;;;;;;11.00;7.97;;;;;;;4.01;82.44;99706.72;1701921;82;21517;-60
2022/02/10 23:19:54;;;;;;;10.47;8.57;;;;;;;4.04;82.37;99712.45;1706591;82;21391;-59
2022/02/10 23:22:20;;;;;;;11.07;9.70;;;;;;;4.05;82.40;99714.20;1704215;83;21136;-59
2022/02/10 23:24:47;;;;;;;10.47;8.60;;;;;;;4.06;82.25;99715.51;1705777;82;21101;-60
2022/02/10 23:27:13;;;;;;;10.30;8.60;;;;;;;4.05;82.22;99716.41;1700647;82;21035;-59
2022/02/10 23:29:39;;;;;;;13.07;9.30;;;;;;;4.08;82.17;99720.80;1707058;82;21120;-60
2022/02/10 23:32:07;;;;;;;9.33;8.43;;;;;;;4.07;82.08;99715.05;1703815;82;21106;-60
2022/02/10 23:34:33;;;;;;;11.00;8.63;;;;;;;4.07;82.02;99709.73;1706795;82;21133;-60
2022/02/10 23:37:00;;;;;;;11.37;8.57;;;;;;;4.06;81.97;99711.52;1703197;82;20997;-60
2022/02/10 23:39:32;;;;;;;8.87;7.73;;;;;;;4.08;82.03;99703.01;1705972;82;20923;-59
2022/02/10 23:42:04;;;;;;;11.97;7.23;;;;;;;4.08;82.00;99702.16;1703930;82;20966;-60
2022/02/10 23:44:34;;;;;;;10.40;8.20;;;;;;;4.09;82.01;99700.77;1704103;82;21026;-60
2022/02/10 23:47:00;;;;;;;8.63;7.60;;;;;;;4.12;82.14;99699.83;1703892;82;21430;-60
2022/02/10 23:49:29;;;;;;;11.50;9.47;;;;;;;4.16;82.06;99692.20;1704036;82;20946;-60
2022/02/10 23:52:04;;;;;;;9.97;8.50;;;;;;;4.16;81.98;99686.88;1701536;82;21412;-60
2022/02/10 23:54:28;;;;;;;11.33;8.57;;;;;;;4.16;81.97;99684.21;1702121;82;21309;-60
2022/02/10 23:57:26;;;;;;;11.20;8.63;;;;;;;4.14;81.96;99681.58;1701757;82;21054;-61
2022/02/10 23:59:58;;;;;;;8.63;6.53;;;;;;;4.14;82.01;99684.70;1700952;83;21815;-61
